Cwmbran, United Kingdom
Current Conditions -  °F | °C
As of 5:50 AM on Thursday 29 Jan 2015 (Local Time) from EGFF Reporting Station
Light Rain Light Rain  
Wind Chill: 29°   Ceiling: 2200
Heat Index: 39°   Visibility: 6mi
Dew Point: 36°   Wind: 22mph
Humidity: 87%   Direction: 290°WNW
Pressure: 29.32"   Gusts: NA
Location:  51.65°N, 3.03°W
Report Text: EGFF 290550Z AUTO 29019KT 9999 -RA BKN022/// BKN040/// //////TCU 04/02 Q0993 RERA
Loading
Personal Weather Stations






























Interactive Weather Map New forecast layout! Learn more

10-Day Weather Forecast

Advertisements
Track Severe Weather on mobile